Terminal Aerodrome Forecast
Issued by NWS Billings, MT

Home | Current Version | Previous Version | Text Only | Print | Product List | Glossary Off
Versions: 1 2 3 4 5 6 7 8 9 10 11 12 13 14 15 16 17 18 19 20 21 22 23 24 25 26 27 28 29 30 31

000
FTUS45 KBYZ 251720
TAFMLS
TAF
KMLS 251720Z 2518/2618 33015G22KT P6SM -RA FEW015 SCT030 BKN060
      TEMPO 2518/2522 4SM -RA OVC020
     FM252200 30010KT P6SM SCT020 BKN100
     FM260300 VRB06KT P6SM SCT020 BKN200
     FM261000 05006KT P6SM VCFG FEW005 SCT030 BKN200
     FM261500 05011KT P6SM SCT030 BKN120=

USA.gov is the U.S. government's official web portal to all federal, state and local government web resources and services.